createdAt,value
2018-05-26T00:00:26.127Z,18.22
2018-05-26T00:02:53.579Z,18.17
2018-05-26T00:05:21.259Z,18.07
2018-05-26T00:07:48.716Z,18.07
2018-05-26T00:10:16.178Z,17.96
2018-05-26T00:12:43.666Z,17.79
2018-05-26T00:15:11.127Z,17.78
2018-05-26T00:17:38.604Z,17.70
2018-05-26T00:20:06.068Z,17.62
2018-05-26T00:22:33.555Z,17.68
2018-05-26T00:25:01.027Z,17.66
2018-05-26T00:27:28.492Z,17.50
2018-05-26T00:29:55.989Z,17.61
2018-05-26T00:32:23.447Z,17.67
2018-05-26T00:34:50.927Z,17.82
2018-05-26T00:37:18.383Z,17.69
2018-05-26T00:39:45.888Z,17.69
2018-05-26T00:42:13.343Z,17.66
2018-05-26T00:44:40.827Z,17.41
2018-05-26T00:47:08.305Z,17.52
2018-05-26T00:49:35.764Z,17.22
2018-05-26T00:52:03.271Z,17.26
2018-05-26T00:54:30.739Z,17.23
2018-05-26T00:56:58.430Z,17.18
2018-05-26T00:59:25.892Z,17.32
2018-05-26T01:01:53.355Z,17.17
2018-05-26T01:04:20.832Z,17.14
2018-05-26T01:06:48.303Z,17.16
2018-05-26T01:09:15.783Z,16.84
2018-05-26T01:11:43.235Z,16.67
2018-05-26T01:14:10.728Z,16.90
2018-05-26T01:16:38.187Z,16.95
2018-05-26T01:19:05.704Z,17.18
2018-05-26T01:21:33.184Z,17.04
2018-05-26T01:24:00.641Z,16.98
2018-05-26T01:26:28.120Z,16.98
2018-05-26T01:28:55.596Z,16.95
2018-05-26T01:31:23.086Z,16.82
2018-05-26T01:33:50.540Z,16.91
2018-05-26T01:36:18.000Z,16.73
2018-05-26T01:38:45.484Z,16.85
2018-05-26T01:41:12.959Z,16.75
2018-05-26T01:43:40.436Z,16.83
2018-05-26T01:46:07.887Z,16.73
2018-05-26T01:48:35.491Z,16.65
2018-05-26T01:51:02.959Z,16.64
2018-05-26T01:53:30.437Z,16.79
2018-05-26T01:55:57.911Z,16.71
2018-05-26T01:58:25.367Z,16.62
2018-05-26T02:00:52.843Z,16.47
2018-05-26T02:03:20.315Z,16.52
2018-05-26T02:05:47.997Z,16.30
2018-05-26T02:08:15.473Z,16.56
2018-05-26T02:10:42.959Z,16.51
2018-05-26T02:13:10.435Z,16.22
2018-05-26T02:15:37.891Z,16.11
2018-05-26T02:18:05.372Z,15.96
2018-05-26T02:20:32.839Z,16.00
2018-05-26T02:23:00.319Z,16.34
2018-05-26T02:25:27.776Z,16.30
2018-05-26T02:27:55.635Z,16.39
2018-05-26T02:30:23.104Z,16.47
2018-05-26T02:32:50.562Z,16.36
2018-05-26T02:35:18.048Z,16.56
2018-05-26T02:37:45.508Z,16.44
2018-05-26T02:40:13.327Z,16.35
2018-05-26T02:42:40.776Z,16.36
2018-05-26T02:45:08.256Z,16.19
2018-05-26T02:47:35.737Z,16.18
2018-05-26T02:50:03.197Z,16.17
2018-05-26T02:52:30.703Z,16.13
2018-05-26T02:54:58.160Z,16.20
2018-05-26T02:57:25.616Z,16.05
2018-05-26T02:59:53.100Z,16.54
2018-05-26T03:02:20.556Z,16.05
2018-05-26T03:04:53.612Z,16.07
2018-05-26T03:07:26.743Z,16.32
2018-05-26T03:09:59.943Z,15.89
2018-05-26T03:12:32.912Z,15.93
2018-05-26T03:14:59.831Z,15.94
2018-05-26T03:17:28.131Z,16.07
2018-05-26T03:19:55.659Z,15.78
2018-05-26T03:22:23.111Z,15.86
2018-05-26T03:24:50.566Z,15.75
2018-05-26T03:27:18.052Z,15.80
2018-05-26T03:29:45.511Z,15.82
2018-05-26T03:32:12.980Z,15.71
2018-05-26T03:34:40.653Z,15.64
2018-05-26T03:37:08.107Z,15.75
2018-05-26T03:39:35.560Z,15.65
2018-05-26T03:42:03.198Z,15.69
2018-05-26T03:44:30.668Z,15.74
2018-05-26T03:46:58.123Z,15.68
2018-05-26T03:49:25.623Z,15.68
2018-05-26T03:51:53.076Z,15.55
2018-05-26T03:54:20.555Z,15.56
2018-05-26T03:56:59.895Z,15.66
2018-05-26T03:59:41.264Z,15.70
2018-05-26T04:02:08.730Z,15.77
2018-05-26T04:04:37.080Z,15.77
2018-05-26T04:07:04.556Z,15.33
2018-05-26T04:09:32.036Z,15.58
2018-05-26T04:11:59.511Z,15.66
2018-05-26T04:14:26.963Z,15.93
2018-05-26T04:16:54.485Z,16.18
2018-05-26T04:19:21.967Z,16.76
2018-05-26T04:21:49.467Z,16.37
2018-05-26T04:24:16.948Z,16.41
2018-05-26T04:26:44.403Z,16.77
2018-05-26T04:29:11.884Z,16.56
2018-05-26T04:31:39.347Z,16.75
2018-05-26T04:34:06.836Z,17.13
2018-05-26T04:36:34.299Z,17.71
2018-05-26T04:39:01.783Z,18.12
2018-05-26T04:41:29.272Z,18.91
2018-05-26T04:43:56.730Z,19.19
2018-05-26T04:46:24.208Z,19.47
2018-05-26T04:48:51.659Z,19.69
2018-05-26T04:51:19.516Z,19.67
2018-05-26T04:53:46.968Z,19.61
2018-05-26T04:56:14.448Z,19.35
2018-05-26T04:58:41.960Z,19.33
2018-05-26T05:01:09.412Z,19.34
2018-05-26T05:03:36.893Z,19.33
2018-05-26T05:06:04.354Z,19.56
2018-05-26T05:08:31.847Z,19.67
2018-05-26T05:10:59.320Z,20.00
2018-05-26T05:13:26.795Z,20.40
2018-05-26T05:15:54.276Z,20.45
2018-05-26T05:18:21.771Z,20.60
2018-05-26T05:20:49.247Z,20.91
2018-05-26T05:23:16.702Z,21.26
2018-05-26T05:25:44.449Z,21.62
2018-05-26T05:28:11.904Z,21.63
2018-05-26T05:30:39.372Z,21.95
2018-05-26T05:33:06.849Z,22.00
2018-05-26T05:35:34.342Z,21.74
2018-05-26T05:38:01.847Z,22.10
2018-05-26T05:40:29.301Z,22.13
2018-05-26T05:42:57.163Z,22.39
2018-05-26T05:45:24.619Z,22.22
2018-05-26T05:47:52.075Z,22.60
2018-05-26T05:50:19.572Z,22.51
2018-05-26T05:52:47.072Z,22.47
2018-05-26T05:55:14.576Z,22.46
2018-05-26T05:57:42.032Z,22.11
2018-05-26T06:00:09.655Z,22.58
2018-05-26T06:02:37.135Z,22.94
2018-05-26T06:05:04.591Z,22.76
2018-05-26T06:07:32.068Z,22.93
2018-05-26T06:09:59.536Z,22.17
2018-05-26T06:12:27.005Z,22.37
2018-05-26T06:14:54.502Z,21.51
2018-05-26T06:17:22.141Z,21.26
2018-05-26T06:19:49.598Z,21.34
2018-05-26T06:22:17.072Z,21.36
2018-05-26T06:24:44.535Z,20.96
2018-05-26T06:27:11.988Z,21.14
2018-05-26T06:29:39.496Z,21.07
2018-05-26T06:32:06.960Z,20.86
2018-05-26T06:34:34.463Z,20.84
2018-05-26T06:37:01.923Z,20.86
2018-05-26T06:39:29.377Z,20.81
2018-05-26T06:41:56.859Z,20.74
2018-05-26T06:44:24.318Z,20.86
2018-05-26T06:46:51.796Z,20.93
2018-05-26T06:49:19.263Z,21.03
2018-05-26T06:51:47.086Z,21.19
2018-05-26T06:54:14.556Z,21.55
2018-05-26T06:56:42.035Z,21.76
2018-05-26T06:59:09.514Z,22.15
2018-05-26T07:01:36.967Z,22.18
2018-05-26T07:04:04.460Z,22.01
2018-05-26T07:06:31.982Z,22.07
2018-05-26T07:08:59.611Z,22.35
2018-05-26T07:11:27.079Z,22.38
2018-05-26T07:13:54.529Z,22.30
2018-05-26T07:16:22.003Z,22.36
2018-05-26T07:18:49.460Z,22.54
2018-05-26T07:21:16.935Z,22.57
2018-05-26T07:23:44.420Z,22.46
2018-05-26T07:26:12.132Z,22.69
2018-05-26T07:28:39.599Z,22.79
2018-05-26T07:31:07.051Z,22.88
2018-05-26T07:33:34.528Z,22.78
2018-05-26T07:36:01.997Z,23.00
2018-05-26T07:38:29.480Z,22.98
2018-05-26T07:40:56.956Z,23.12
2018-05-26T07:43:24.459Z,23.12
2018-05-26T07:45:51.925Z,23.43
2018-05-26T07:48:19.383Z,23.31
2018-05-26T07:50:46.919Z,23.31
2018-05-26T07:53:14.358Z,23.81
2018-05-26T07:55:41.852Z,23.51
2018-05-26T07:58:09.313Z,23.33
2018-05-26T08:00:36.987Z,23.69
2018-05-26T08:03:04.445Z,23.74
2018-05-26T08:05:31.932Z,23.91
2018-05-26T08:07:59.412Z,24.05
2018-05-26T08:10:26.864Z,24.05
2018-05-26T08:12:54.375Z,23.74
2018-05-26T08:15:21.836Z,23.91
2018-05-26T08:17:49.362Z,23.89
2018-05-26T08:20:16.824Z,24.16
2018-05-26T08:22:44.275Z,24.51
2018-05-26T08:25:11.759Z,24.37
2018-05-26T08:27:39.215Z,24.29
2018-05-26T08:30:06.774Z,24.52
2018-05-26T08:32:34.243Z,24.43
2018-05-26T08:35:01.752Z,24.47
2018-05-26T08:37:29.209Z,24.41
2018-05-26T08:39:56.660Z,24.71
2018-05-26T08:42:24.151Z,25.04
2018-05-26T08:44:51.606Z,24.99
2018-05-26T08:47:19.230Z,24.80
2018-05-26T08:49:46.738Z,24.87
2018-05-26T08:52:14.196Z,24.99
2018-05-26T08:54:41.703Z,24.99
2018-05-26T08:57:09.161Z,25.18
2018-05-26T08:59:36.660Z,24.95
2018-05-26T09:02:04.128Z,24.65
2018-05-26T09:04:31.583Z,24.96
2018-05-26T09:06:59.081Z,24.89
2018-05-26T09:09:26.543Z,25.22
2018-05-26T09:11:54.070Z,25.07
2018-05-26T09:14:21.520Z,25.03
2018-05-26T09:16:48.971Z,24.99
2018-05-26T09:19:16.450Z,25.20
2018-05-26T09:21:43.927Z,25.31
2018-05-26T09:24:11.562Z,25.26
2018-05-26T09:26:39.015Z,25.66
2018-05-26T09:29:06.468Z,25.52
2018-05-26T09:31:33.931Z,25.96
2018-05-26T09:34:01.379Z,25.85
2018-05-26T09:36:28.855Z,25.74
2018-05-26T09:38:56.316Z,25.60
2018-05-26T09:41:23.953Z,25.80
2018-05-26T09:43:51.408Z,25.78
2018-05-26T09:46:18.859Z,25.89
2018-05-26T09:48:46.354Z,25.60
2018-05-26T09:51:13.803Z,25.59
2018-05-26T09:53:41.267Z,25.84
2018-05-26T09:56:08.751Z,25.98
2018-05-26T09:58:36.443Z,26.14
2018-05-26T10:01:03.922Z,26.38
2018-05-26T10:03:31.372Z,26.36
2018-05-26T10:05:58.844Z,26.18
2018-05-26T10:08:26.311Z,26.11
2018-05-26T10:10:53.820Z,26.74
2018-05-26T10:13:21.268Z,26.37
2018-05-26T10:15:48.995Z,26.32
2018-05-26T10:18:16.447Z,26.48
2018-05-26T10:20:43.918Z,25.94
2018-05-26T10:23:11.394Z,26.27
2018-05-26T10:25:38.856Z,26.40
2018-05-26T10:28:06.320Z,26.48
2018-05-26T10:30:33.780Z,26.44
2018-05-26T10:33:01.435Z,26.19
2018-05-26T10:35:28.908Z,26.34
2018-05-26T10:37:56.365Z,26.52
2018-05-26T10:40:23.851Z,26.56
2018-05-26T10:42:51.300Z,26.71
2018-05-26T10:45:24.508Z,26.78
2018-05-26T10:47:51.968Z,26.48
2018-05-26T10:50:19.763Z,26.97
2018-05-26T10:52:47.211Z,27.04
2018-05-26T10:55:14.668Z,26.83
2018-05-26T10:57:42.139Z,26.90
2018-05-26T11:00:09.584Z,26.94
2018-05-26T11:02:37.052Z,27.02
2018-05-26T11:05:04.534Z,27.38
2018-05-26T11:07:32.177Z,27.57
2018-05-26T11:09:59.680Z,27.69
2018-05-26T11:12:27.124Z,27.69
2018-05-26T11:14:54.600Z,27.44
2018-05-26T11:17:22.088Z,27.17
2018-05-26T11:19:49.569Z,27.24
2018-05-26T11:22:17.022Z,27.41
2018-05-26T11:24:44.593Z,27.27
2018-05-26T11:27:11.975Z,27.26
2018-05-26T11:29:39.428Z,27.30
2018-05-26T11:32:06.924Z,27.15
2018-05-26T11:34:34.375Z,27.39
2018-05-26T11:37:01.887Z,27.65
2018-05-26T11:39:29.328Z,27.38
2018-05-26T11:41:57.136Z,27.70
2018-05-26T11:44:24.588Z,27.76
2018-05-26T11:46:52.036Z,28.19
2018-05-26T11:49:19.532Z,27.45
2018-05-26T11:51:46.987Z,27.37
2018-05-26T11:54:14.528Z,27.35
2018-05-26T11:56:41.979Z,27.66
2018-05-26T11:59:09.420Z,27.65
2018-05-26T12:01:36.883Z,28.42
2018-05-26T12:04:04.335Z,28.51
2018-05-26T12:06:32.064Z,28.53
2018-05-26T12:08:59.514Z,28.06
2018-05-26T12:11:26.983Z,28.06
2018-05-26T12:13:54.481Z,28.30
2018-05-26T12:16:21.927Z,28.50
2018-05-26T12:18:49.700Z,28.25
2018-05-26T12:21:17.339Z,28.12
2018-05-26T12:23:44.807Z,27.94
2018-05-26T12:26:12.301Z,28.08
2018-05-26T12:28:39.751Z,28.07
2018-05-26T12:31:07.668Z,27.67
2018-05-26T12:33:35.111Z,27.71
2018-05-26T12:36:02.596Z,27.43
2018-05-26T12:38:30.089Z,27.76
2018-05-26T12:40:57.540Z,27.97
2018-05-26T12:43:25.228Z,28.21
2018-05-26T12:45:52.680Z,28.13
2018-05-26T12:48:20.134Z,28.20
2018-05-26T12:50:47.632Z,28.10
2018-05-26T12:53:15.080Z,28.29
2018-05-26T12:55:42.671Z,28.25
2018-05-26T12:58:10.123Z,28.21
2018-05-26T13:00:37.580Z,28.09
2018-05-26T13:03:05.066Z,28.36
2018-05-26T13:05:32.528Z,28.67
2018-05-26T13:07:59.997Z,29.11
2018-05-26T13:10:27.480Z,28.87
2018-05-26T13:12:54.963Z,28.54
2018-05-26T13:15:22.408Z,28.41
2018-05-26T13:17:49.855Z,28.07
2018-05-26T13:20:17.323Z,28.23
2018-05-26T13:22:44.779Z,28.55
2018-05-26T13:25:12.252Z,28.20
2018-05-26T13:27:39.729Z,28.34
2018-05-26T13:30:07.384Z,28.45
2018-05-26T13:32:34.836Z,28.32
2018-05-26T13:35:02.291Z,28.52
2018-05-26T13:37:29.759Z,28.76
2018-05-26T13:39:57.199Z,29.09
2018-05-26T13:42:24.671Z,28.94
2018-05-26T13:44:52.125Z,29.12
2018-05-26T13:47:19.634Z,29.18
2018-05-26T13:49:47.088Z,28.36
2018-05-26T13:52:14.539Z,28.75
2018-05-26T13:54:42.063Z,28.63
2018-05-26T13:57:09.476Z,28.73
2018-05-26T13:59:36.956Z,28.26
2018-05-26T14:02:04.506Z,28.71
2018-05-26T14:04:32.331Z,28.83
2018-05-26T14:06:59.783Z,28.69
2018-05-26T14:09:27.236Z,29.07
2018-05-26T14:11:54.721Z,28.76
2018-05-26T14:14:22.164Z,28.73
2018-05-26T14:16:49.636Z,29.24
2018-05-26T14:19:17.081Z,29.06
2018-05-26T14:21:45.023Z,28.63
2018-05-26T14:24:12.471Z,28.77
2018-05-26T14:26:39.920Z,28.68
2018-05-26T14:29:07.405Z,28.71
2018-05-26T14:31:34.860Z,28.92
2018-05-26T14:34:02.332Z,28.71
2018-05-26T14:36:29.796Z,29.00
2018-05-26T14:38:57.416Z,28.77
2018-05-26T14:41:24.863Z,28.69
2018-05-26T14:43:52.320Z,28.87
2018-05-26T14:46:19.791Z,28.77
2018-05-26T14:48:47.237Z,29.13
2018-05-26T14:51:14.719Z,28.87
2018-05-26T14:53:42.160Z,28.70
2018-05-26T14:56:09.660Z,28.93
2018-05-26T14:58:37.104Z,28.74
2018-05-26T15:01:04.547Z,28.59
2018-05-26T15:03:32.020Z,29.06
2018-05-26T15:05:59.471Z,29.20
2018-05-26T15:08:26.969Z,29.21
2018-05-26T15:10:54.452Z,28.95
2018-05-26T15:13:22.151Z,28.75
2018-05-26T15:15:49.582Z,28.84
2018-05-26T15:18:17.032Z,28.92
2018-05-26T15:20:44.520Z,28.97
2018-05-26T15:23:11.990Z,28.91
2018-05-26T15:25:39.460Z,28.63
2018-05-26T15:28:06.908Z,28.79
2018-05-26T15:30:34.598Z,28.65
2018-05-26T15:33:02.045Z,28.66
2018-05-26T15:35:29.496Z,28.93
2018-05-26T15:37:56.977Z,28.87
2018-05-26T15:40:24.424Z,29.20
2018-05-26T15:42:51.897Z,29.45
2018-05-26T15:45:19.347Z,29.34
2018-05-26T15:47:47.083Z,29.20
2018-05-26T15:50:14.531Z,29.02
2018-05-26T15:52:41.985Z,29.19
2018-05-26T15:55:09.472Z,29.12
2018-05-26T15:57:36.933Z,29.11
2018-05-26T16:00:04.416Z,28.95
2018-05-26T16:02:31.880Z,29.05
2018-05-26T16:04:59.475Z,28.90
2018-05-26T16:07:26.920Z,28.96
2018-05-26T16:09:54.367Z,29.12
2018-05-26T16:12:21.937Z,29.14
2018-05-26T16:14:49.392Z,28.94
2018-05-26T16:17:16.859Z,28.85
2018-05-26T16:19:44.347Z,28.85
2018-05-26T16:22:11.978Z,28.76
2018-05-26T16:24:39.432Z,29.04
2018-05-26T16:27:06.896Z,28.71
2018-05-26T16:29:34.360Z,28.63
2018-05-26T16:32:01.816Z,28.48
2018-05-26T16:34:29.296Z,28.42
2018-05-26T16:36:56.743Z,28.61
2018-05-26T16:39:24.364Z,28.70
2018-05-26T16:41:51.815Z,28.82
2018-05-26T16:44:19.260Z,28.66
2018-05-26T16:46:46.735Z,28.55
2018-05-26T16:49:14.187Z,28.44
2018-05-26T16:51:41.663Z,28.46
2018-05-26T16:54:09.107Z,28.36
2018-05-26T16:56:36.599Z,28.26
2018-05-26T16:59:04.056Z,28.35
2018-05-26T17:01:31.508Z,28.45
2018-05-26T17:03:58.979Z,28.19
2018-05-26T17:06:26.436Z,28.32
2018-05-26T17:08:53.913Z,28.41
2018-05-26T17:11:21.359Z,28.38
2018-05-26T17:13:48.855Z,28.30
2018-05-26T17:16:16.364Z,28.41
2018-05-26T17:18:43.824Z,28.19
2018-05-26T17:21:11.292Z,28.38
2018-05-26T17:23:38.739Z,28.55
2018-05-26T17:26:06.204Z,28.29
2018-05-26T17:28:33.704Z,28.42
2018-05-26T17:31:01.328Z,28.34
2018-05-26T17:33:28.780Z,28.32
2018-05-26T17:35:56.239Z,28.23
2018-05-26T17:38:23.707Z,28.30
2018-05-26T17:40:51.161Z,28.23
2018-05-26T17:43:18.624Z,28.16
2018-05-26T17:45:46.093Z,28.13
2018-05-26T17:48:13.825Z,28.05
2018-05-26T17:50:41.271Z,28.04
2018-05-26T17:53:08.720Z,27.85
2018-05-26T17:55:36.216Z,27.97
2018-05-26T17:58:03.659Z,27.85
2018-05-26T18:00:31.136Z,28.02
2018-05-26T18:02:58.584Z,27.83
2018-05-26T18:05:26.304Z,27.99
2018-05-26T18:07:53.749Z,27.80
2018-05-26T18:10:21.240Z,27.99
2018-05-26T18:12:48.716Z,27.91
2018-05-26T18:15:16.199Z,27.87
2018-05-26T18:17:43.667Z,27.76
2018-05-26T18:20:11.112Z,27.58
2018-05-26T18:22:38.732Z,27.48
2018-05-26T18:25:06.186Z,27.27
2018-05-26T18:27:33.643Z,27.20
2018-05-26T18:30:01.111Z,26.60
2018-05-26T18:32:28.569Z,26.39
2018-05-26T18:34:56.035Z,26.48
2018-05-26T18:37:23.486Z,25.95
2018-05-26T18:39:51.092Z,25.63
2018-05-26T18:42:18.549Z,25.84
2018-05-26T18:44:46.016Z,25.78
2018-05-26T18:47:13.503Z,25.78
2018-05-26T18:49:40.948Z,25.71
2018-05-26T18:52:08.427Z,25.49
2018-05-26T18:54:35.888Z,25.35
2018-05-26T18:57:03.487Z,25.23
2018-05-26T18:59:30.927Z,25.22
2018-05-26T19:01:58.375Z,25.36
2018-05-26T19:04:25.852Z,25.04
2018-05-26T19:06:53.304Z,25.03
2018-05-26T19:09:21.123Z,24.88
2018-05-26T19:11:48.564Z,24.90
2018-05-26T19:14:16.009Z,24.78
2018-05-26T19:16:43.505Z,24.47
2018-05-26T19:19:10.952Z,24.72
2018-05-26T19:21:38.438Z,24.53
2018-05-26T19:24:05.916Z,24.23
2018-05-26T19:26:33.413Z,24.30
2018-05-26T19:29:00.856Z,24.06
2018-05-26T19:31:28.295Z,23.84
2018-05-26T19:33:55.790Z,24.04
2018-05-26T19:36:23.272Z,24.19
2018-05-26T19:38:50.720Z,24.09
2018-05-26T19:41:18.196Z,24.07
2018-05-26T19:43:45.669Z,23.91
2018-05-26T19:46:13.125Z,23.71
2018-05-26T19:48:40.600Z,23.66
2018-05-26T19:51:08.048Z,23.53
2018-05-26T19:53:35.495Z,23.56
2018-05-26T19:56:02.972Z,23.57
2018-05-26T19:58:30.444Z,23.58
2018-05-26T20:00:57.896Z,23.41
2018-05-26T20:03:25.369Z,23.18
2018-05-26T20:05:52.811Z,23.02
2018-05-26T20:08:20.274Z,22.92
2018-05-26T20:10:47.756Z,23.10
2018-05-26T20:13:15.224Z,22.99
2018-05-26T20:15:42.721Z,23.12
2018-05-26T20:18:10.176Z,23.11
2018-05-26T20:20:37.620Z,23.13
2018-05-26T20:23:05.092Z,23.09
2018-05-26T20:25:32.547Z,23.03
2018-05-26T20:28:00.032Z,22.73
2018-05-26T20:30:27.476Z,22.67
2018-05-26T20:32:54.948Z,22.70
2018-05-26T20:35:22.432Z,22.57
2018-05-26T20:37:49.884Z,22.53
2018-05-26T20:40:17.372Z,22.51
2018-05-26T20:42:44.819Z,22.39
2018-05-26T20:45:12.279Z,22.30
2018-05-26T20:47:39.782Z,22.25
2018-05-26T20:50:07.242Z,22.17
2018-05-26T20:52:34.728Z,22.01
2018-05-26T20:55:02.179Z,22.02
2018-05-26T20:57:29.624Z,21.50
2018-05-26T20:59:57.145Z,21.66
2018-05-26T21:02:24.575Z,21.60
2018-05-26T21:04:52.327Z,21.45
2018-05-26T21:07:19.767Z,21.53
2018-05-26T21:09:47.217Z,21.62
2018-05-26T21:12:14.707Z,21.61
2018-05-26T21:14:42.170Z,21.61
2018-05-26T21:17:10.090Z,21.39
2018-05-26T21:19:37.607Z,21.49
2018-05-26T21:22:05.060Z,21.38
2018-05-26T21:24:32.528Z,21.41
2018-05-26T21:26:59.979Z,21.50
2018-05-26T21:29:27.459Z,21.25
2018-05-26T21:31:54.899Z,21.33
2018-05-26T21:34:22.343Z,21.43
2018-05-26T21:36:49.825Z,21.13
2018-05-26T21:39:17.286Z,21.10
2018-05-26T21:41:44.771Z,20.99
2018-05-26T21:44:12.240Z,21.07
2018-05-26T21:46:39.691Z,21.10
2018-05-26T21:49:07.160Z,21.06
2018-05-26T21:51:34.609Z,21.04
2018-05-26T21:54:02.249Z,21.11
2018-05-26T21:56:29.700Z,20.90
2018-05-26T21:58:57.161Z,20.93
2018-05-26T22:01:24.694Z,20.82
2018-05-26T22:03:53.107Z,20.82
2018-05-26T22:06:20.596Z,20.79
2018-05-26T22:08:48.052Z,20.53
2018-05-26T22:11:15.507Z,20.45
2018-05-26T22:13:42.996Z,20.35
2018-05-26T22:16:10.452Z,20.45
2018-05-26T22:18:37.956Z,20.47
2018-05-26T22:21:05.407Z,20.47
2018-05-26T22:23:32.856Z,20.33
2018-05-26T22:26:00.338Z,20.32
2018-05-26T22:28:27.791Z,20.23
2018-05-26T22:30:55.506Z,20.03
2018-05-26T22:33:22.959Z,19.97
2018-05-26T22:35:50.404Z,19.97
2018-05-26T22:38:17.884Z,20.00
2018-05-26T22:40:45.341Z,19.82
2018-05-26T22:43:12.831Z,19.72
2018-05-26T22:45:40.275Z,19.60
2018-05-26T22:48:08.001Z,19.40
2018-05-26T22:50:35.459Z,19.51
2018-05-26T22:53:02.908Z,19.58
2018-05-26T22:55:30.376Z,19.61
2018-05-26T22:57:57.829Z,19.46
2018-05-26T23:00:27.027Z,19.38
2018-05-26T23:02:54.467Z,19.67
2018-05-26T23:05:22.447Z,19.46
2018-05-26T23:07:49.907Z,19.42
2018-05-26T23:10:17.360Z,19.44
2018-05-26T23:12:44.840Z,19.40
2018-05-26T23:15:12.292Z,19.37
2018-05-26T23:17:39.783Z,19.44
2018-05-26T23:20:07.236Z,19.42
2018-05-26T23:22:34.947Z,19.45
2018-05-26T23:25:02.388Z,19.43
2018-05-26T23:27:29.844Z,19.40
2018-05-26T23:29:57.328Z,19.58
2018-05-26T23:32:24.768Z,19.64
2018-05-26T23:34:52.248Z,19.66
2018-05-26T23:37:19.736Z,19.60
2018-05-26T23:39:47.434Z,19.63
2018-05-26T23:42:14.900Z,19.41
2018-05-26T23:44:42.344Z,19.54
2018-05-26T23:47:09.823Z,19.47
2018-05-26T23:49:37.279Z,19.17
2018-05-26T23:52:04.764Z,19.30
2018-05-26T23:54:32.223Z,19.34
2018-05-26T23:56:59.728Z,19.47
2018-05-26T23:59:27.196Z,19.30
